Time;durP1;ratioP1;P1;durP2;ratioP2;P2;SDS_P1;SDS_P2;PMS_P1;PMS_P2;Temp;Humidity;BMP_temperature;BMP_pressure;BME280_temperature;BME280_humidity;BME280_pressure;Samples;Min_cycle;Max_cycle;Signal;HPM_P1;HPM_P2
2022/09/30 00:01:31;;;;;;;7.50;5.40;;;12.10;59.00;;;;;;5076166;27;20957;-92
2022/09/30 00:03:58;;;;;;;9.07;5.70;;;12.20;58.20;;;;;;5087267;27;20470;-91
2022/09/30 00:06:27;;;;;;;18.00;5.17;;;12.20;58.30;;;;;;5085162;27;20450;-92
2022/09/30 00:08:56;;;;;;;18.57;5.37;;;12.20;58.10;;;;;;5076821;27;20519;-92
2022/09/30 00:11:25;;;;;;;8.90;5.83;;;11.90;58.40;;;;;;5100727;27;20934;-93
2022/09/30 00:13:54;;;;;;;10.03;5.00;;;12.10;58.50;;;;;;5072425;27;20452;-91
2022/09/30 00:16:23;;;;;;;9.80;5.10;;;12.30;58.50;;;;;;5123834;27;20511;-92
2022/09/30 00:18:50;;;;;;;83.30;8.90;;;12.20;58.50;;;;;;5083995;27;20442;-91
2022/09/30 00:21:17;;;;;;;13.70;4.87;;;12.00;58.70;;;;;;5107948;27;20474;-92
2022/09/30 00:23:45;;;;;;;41.33;7.23;;;12.10;58.50;;;;;;5083762;27;20976;-93
2022/09/30 00:26:16;;;;;;;9.70;5.10;;;12.20;58.00;;;;;;5083050;27;20823;-93
2022/09/30 00:28:44;;;;;;;14.13;5.57;;;12.30;58.20;;;;;;5102829;27;20471;-91
2022/09/30 00:31:13;;;;;;;17.33;5.30;;;12.50;58.00;;;;;;5102642;27;20975;-92
2022/09/30 00:33:41;;;;;;;9.93;5.53;;;12.50;57.60;;;;;;5083829;27;21008;-94
2022/09/30 00:36:09;;;;;;;39.67;7.73;;;12.40;57.70;;;;;;5097666;27;20699;-91
2022/09/30 00:38:36;;;;;;;141.53;12.57;;;12.00;58.40;;;;;;5065233;28;20534;-92
2022/09/30 00:41:03;;;;;;;12.20;4.70;;;11.80;59.20;;;;;;5074344;27;20624;-92
2022/09/30 00:43:44;;;;;;;66.97;9.80;;;12.10;59.20;;;;;;5088670;27;20451;-92
2022/09/30 00:46:19;;;;;;;75.30;7.80;;;11.60;59.30;;;;;;5064532;28;20443;-91
2022/09/30 00:48:52;;;;;;;16.40;6.63;;;11.80;59.20;;;;;;5094478;27;20473;-92
2022/09/30 00:51:25;;;;;;;15.37;5.33;;;12.10;58.90;;;;;;5073221;27;20521;-92
2022/09/30 00:53:56;;;;;;;14.57;5.73;;;12.20;58.60;;;;;;5073290;28;20455;-91
2022/09/30 00:56:26;;;;;;;27.23;6.03;;;12.30;58.60;;;;;;5067477;27;20451;-94
2022/09/30 00:59:01;;;;;;;13.90;5.77;;;12.30;58.40;;;;;;5063312;27;20731;-92
2022/09/30 01:01:28;;;;;;;26.73;6.43;;;12.20;58.30;;;;;;5072125;28;20537;-91
2022/09/30 01:03:59;;;;;;;9.93;5.13;;;11.90;59.00;;;;;;5073093;27;20458;-92
2022/09/30 01:06:27;;;;;;;39.83;7.20;;;11.70;59.40;;;;;;5072660;27;20533;-92
2022/09/30 01:08:57;;;;;;;11.03;5.67;;;11.80;59.40;;;;;;5097844;27;20474;-93
2022/09/30 01:11:26;;;;;;;12.63;5.90;;;11.80;59.40;;;;;;5097726;27;20443;-92
2022/09/30 01:13:59;;;;;;;16.03;6.60;;;11.90;59.40;;;;;;5082420;27;20441;-93
2022/09/30 01:16:55;;;;;;;66.63;9.17;;;12.00;59.30;;;;;;5085089;27;20484;-92
2022/09/30 01:19:42;;;;;;;73.37;8.70;;;11.70;59.00;;;;;;5067062;27;20456;-93
2022/09/30 01:22:26;;;;;;;21.30;7.20;;;11.30;59.90;;;;;;5086374;27;21195;-92
2022/09/30 01:25:13;;;;;;;17.87;7.10;;;11.40;60.20;;;;;;5068949;28;21008;-91
2022/09/30 01:28:20;;;;;;;38.60;7.10;;;11.50;60.40;;;;;;5097060;27;20841;-91
2022/09/30 01:31:04;;;;;;;19.10;6.33;;;11.60;59.70;;;;;;5057235;27;20442;-91
2022/09/30 01:33:41;;;;;;;7.07;5.30;;;11.60;59.60;;;;;;5086150;27;20430;-91
2022/09/30 01:36:29;;;;;;;25.43;7.00;;;11.50;59.90;;;;;;5082564;27;20993;-91
2022/09/30 01:39:08;;;;;;;38.40;8.03;;;11.70;59.80;;;;;;5096870;27;20445;-92
2022/09/30 01:41:42;;;;;;;18.53;6.57;;;11.80;59.10;;;;;;5089619;27;20626;-91
2022/09/30 01:44:14;;;;;;;98.67;8.87;;;11.90;59.00;;;;;;5084646;27;20473;-91
2022/09/30 01:46:47;;;;;;;53.17;8.50;;;11.80;58.80;;;;;;5120148;27;20557;-92
2022/09/30 01:49:24;;;;;;;13.30;6.00;;;11.70;58.90;;;;;;5105167;27;20873;-91
2022/09/30 01:51:58;;;;;;;15.30;5.80;;;11.60;59.30;;;;;;5087394;27;20447;-93
2022/09/30 01:54:33;;;;;;;23.97;8.10;;;11.40;59.70;;;;;;5082231;27;21049;-91
2022/09/30 01:57:05;;;;;;;17.40;7.00;;;11.30;60.00;;;;;;5065176;27;20450;-93
2022/09/30 01:59:36;;;;;;;20.80;6.97;;;11.40;60.20;;;;;;5097185;27;20441;-92
2022/09/30 02:02:09;;;;;;;14.20;6.20;;;11.60;59.80;;;;;;5088096;27;21075;-91
2022/09/30 02:04:41;;;;;;;10.67;5.80;;;11.60;59.60;;;;;;5089689;27;20484;-92
2022/09/30 02:07:14;;;;;;;11.20;6.33;;;11.50;59.50;;;;;;5107160;27;21202;-92
2022/09/30 02:09:47;;;;;;;30.20;7.33;;;11.50;60.10;;;;;;5100613;27;20451;-91
2022/09/30 02:12:19;;;;;;;15.73;7.00;;;11.60;59.50;;;;;;5119438;27;20448;-91
2022/09/30 02:14:50;;;;;;;57.50;7.57;;;11.60;59.40;;;;;;5107902;27;20478;-91
2022/09/30 02:17:24;;;;;;;80.47;7.63;;;11.20;59.70;;;;;;5113645;27;20495;-92
2022/09/30 02:19:57;;;;;;;10.67;5.13;;;11.30;59.70;;;;;;5091011;27;20937;-91
2022/09/30 02:22:28;;;;;;;8.93;5.83;;;11.40;59.90;;;;;;5100411;27;20538;-90
2022/09/30 02:25:02;;;;;;;13.83;5.47;;;11.50;59.20;;;;;;5124865;27;20470;-91
2022/09/30 02:27:41;;;;;;;7.87;5.57;;;11.60;58.80;;;;;;5090782;27;20482;-91
2022/09/30 02:30:10;;;;;;;12.83;5.50;;;11.80;58.30;;;;;;5121715;27;21182;-92
2022/09/30 02:32:44;;;;;;;6.00;4.53;;;11.80;57.90;;;;;;5099179;27;20439;-92
2022/09/30 02:35:17;;;;;;;7.10;4.47;;;11.90;57.60;;;;;;5100867;28;20502;-92
2022/09/30 02:37:49;;;;;;;4.60;3.60;;;11.70;57.30;;;;;;5117724;27;20442;-92
2022/09/30 02:40:23;;;;;;;5.37;3.80;;;11.70;57.50;;;;;;5108363;27;20450;-92
2022/09/30 02:42:50;;;;;;;6.03;3.77;;;11.70;57.00;;;;;;5101663;27;20817;-91
2022/09/30 02:45:21;;;;;;;6.93;3.50;;;11.60;56.50;;;;;;5106855;27;20463;-92
2022/09/30 02:48:10;;;;;;;4.80;3.27;;;11.60;57.50;;;;;;5108185;27;20451;-91
2022/09/30 02:50:46;;;;;;;5.27;3.27;;;11.70;56.90;;;;;;5096685;27;20438;-91
2022/09/30 02:53:24;;;;;;;6.47;4.80;;;11.80;56.60;;;;;;5123878;27;20443;-91
2022/09/30 02:56:12;;;;;;;3.97;3.10;;;11.80;56.30;;;;;;5113967;27;20482;-91
2022/09/30 02:58:42;;;;;;;4.60;3.10;;;11.60;56.90;;;;;;5100294;28;20445;-92
2022/09/30 03:01:13;;;;;;;4.00;3.53;;;11.60;56.80;;;;;;5102549;28;20439;-92
2022/09/30 03:03:44;;;;;;;4.90;3.57;;;11.70;56.80;;;;;;5101614;28;20447;-92
2022/09/30 03:06:13;;;;;;;5.63;4.23;;;11.80;56.80;;;;;;5089857;27;20534;-92
2022/09/30 03:08:40;;;;;;;24.67;4.90;;;11.80;56.60;;;;;;5118246;27;20487;-91
2022/09/30 03:11:07;;;;;;;4.97;3.97;;;11.90;56.50;;;;;;5100578;27;20450;-91
2022/09/30 03:13:56;;;;;;;4.33;3.77;;;11.90;56.60;;;;;;5114316;27;21108;-91
2022/09/30 03:16:34;;;;;;;6.03;3.57;;;11.90;56.20;;;;;;5112177;28;20442;-93
2022/09/30 03:19:17;;;;;;;6.67;5.00;;;11.70;56.50;;;;;;5115875;28;20445;-93
2022/09/30 03:22:04;;;;;;;5.77;3.77;;;11.50;56.80;;;;;;5087232;28;20992;-93
2022/09/30 03:24:45;;;;;;;6.50;4.50;;;11.40;57.50;;;;;;5105477;28;20475;-92
2022/09/30 03:27:23;;;;;;;8.20;4.97;;;11.50;57.50;;;;;;5091392;27;20446;-92
2022/09/30 03:29:58;;;;;;;12.37;5.33;;;11.50;57.80;;;;;;5119352;27;20465;-92
2022/09/30 03:32:41;;;;;;;9.30;5.40;;;11.50;57.60;;;;;;5101256;27;20638;-92
2022/09/30 03:35:19;;;;;;;27.13;6.70;;;11.60;57.60;;;;;;5119404;27;20480;-93
2022/09/30 03:37:57;;;;;;;15.97;5.37;;;11.80;57.50;;;;;;5109647;27;20453;-91
2022/09/30 03:40:30;;;;;;;8.93;5.73;;;11.30;57.90;;;;;;5093932;27;20481;-94
2022/09/30 03:43:03;;;;;;;11.37;5.47;;;11.10;58.70;;;;;;5100002;27;21238;-91
2022/09/30 03:45:35;;;;;;;11.83;5.07;;;11.00;58.50;;;;;;5102617;27;20466;-92
2022/09/30 03:48:06;;;;;;;16.40;5.90;;;11.20;58.50;;;;;;5118155;27;20525;-92
2022/09/30 03:50:36;;;;;;;9.00;5.10;;;11.20;58.50;;;;;;5099543;27;20466;-93
2022/09/30 03:53:06;;;;;;;8.80;5.93;;;11.20;58.50;;;;;;5117188;27;20439;-93
2022/09/30 03:55:33;;;;;;;8.37;5.73;;;11.00;58.70;;;;;;5114990;27;20470;-91
2022/09/30 03:58:01;;;;;;;12.40;5.63;;;11.00;58.90;;;;;;5121595;27;20455;-92
2022/09/30 04:00:28;;;;;;;10.17;6.77;;;11.00;59.00;;;;;;5110170;27;20446;-92
2022/09/30 04:02:55;;;;;;;20.50;8.20;;;11.00;59.50;;;;;;5089701;27;20450;-91
2022/09/30 04:05:21;;;;;;;12.70;8.13;;;11.10;59.50;;;;;;5104444;27;20474;-92
2022/09/30 04:07:50;;;;;;;15.37;9.47;;;11.30;58.70;;;;;;5099571;28;20530;-91
2022/09/30 04:10:17;;;;;;;9.23;6.57;;;11.20;58.50;;;;;;5102011;27;20562;-91
2022/09/30 04:12:44;;;;;;;11.60;7.63;;;11.30;58.70;;;;;;5102008;27;20537;-92
2022/09/30 04:15:11;;;;;;;8.83;6.67;;;11.30;58.20;;;;;;5097030;27;20492;-92
2022/09/30 04:17:38;;;;;;;13.43;7.50;;;11.40;58.20;;;;;;5101540;27;20457;-92
2022/09/30 04:20:06;;;;;;;10.70;6.60;;;11.40;58.10;;;;;;5106749;27;20438;-92
2022/09/30 04:22:33;;;;;;;16.43;4.50;;;11.50;57.90;;;;;;5118286;27;20470;-92
2022/09/30 04:25:01;;;;;;;9.97;6.00;;;11.40;57.50;;;;;;5097666;27;20470;-92
2022/09/30 04:27:29;;;;;;;6.37;4.10;;;11.60;57.80;;;;;;5109105;27;20439;-93
2022/09/30 04:29:56;;;;;;;7.17;4.97;;;11.50;57.50;;;;;;5090711;27;20469;-91
2022/09/30 04:32:24;;;;;;;16.07;6.33;;;11.40;57.50;;;;;;5119734;27;20553;-91
2022/09/30 04:34:52;;;;;;;8.90;6.67;;;11.10;57.50;;;;;;5100406;27;21024;-93
2022/09/30 04:37:19;;;;;;;6.67;5.43;;;11.20;57.80;;;;;;5102801;27;20442;-90
2022/09/30 04:39:46;;;;;;;6.30;4.73;;;11.40;57.70;;;;;;5119078;27;20443;-92
2022/09/30 04:42:15;;;;;;;8.97;4.90;;;11.30;57.00;;;;;;5091491;27;20462;-91
2022/09/30 04:44:42;;;;;;;9.40;4.60;;;11.20;57.00;;;;;;5104000;27;20458;-92
2022/09/30 04:47:09;;;;;;;7.30;5.20;;;11.20;57.00;;;;;;5090415;27;20439;-95
2022/09/30 04:49:36;;;;;;;10.40;6.00;;;11.30;57.30;;;;;;5113952;27;20530;-92
2022/09/30 04:52:03;;;;;;;6.43;4.30;;;11.20;57.10;;;;;;5083525;27;20480;-92
2022/09/30 04:54:30;;;;;;;13.50;7.50;;;11.10;57.30;;;;;;5082436;28;20502;-92
2022/09/30 04:56:57;;;;;;;10.57;5.17;;;10.80;57.40;;;;;;5088810;27;20534;-90
2022/09/30 04:59:26;;;;;;;11.33;5.30;;;10.60;58.30;;;;;;5090546;27;20473;-92
2022/09/30 05:01:53;;;;;;;6.57;4.57;;;10.60;58.20;;;;;;5099634;27;20437;-92
2022/09/30 05:04:20;;;;;;;13.13;3.50;;;10.50;58.30;;;;;;5101909;27;20951;-94
2022/09/30 05:06:48;;;;;;;11.63;3.90;;;10.50;58.40;;;;;;5095517;27;20841;-93
2022/09/30 05:09:15;;;;;;;6.23;3.63;;;10.60;58.20;;;;;;5119143;27;20569;-91
2022/09/30 05:11:42;;;;;;;7.93;4.87;;;10.70;58.20;;;;;;5096807;27;20578;-91
2022/09/30 05:14:09;;;;;;;41.10;5.10;;;10.90;57.60;;;;;;5096437;27;20467;-92
2022/09/30 05:16:38;;;;;;;12.93;4.43;;;11.00;57.10;;;;;;5091083;27;20439;-92
2022/09/30 05:19:05;;;;;;;4.30;3.33;;;11.00;57.30;;;;;;5106391;27;20811;-95
2022/09/30 05:21:32;;;;;;;4.60;3.50;;;11.00;57.00;;;;;;5099382;27;20455;-90
2022/09/30 05:23:59;;;;;;;3.00;2.70;;;11.00;56.80;;;;;;5090386;27;21066;-91
2022/09/30 05:26:26;;;;;;;4.50;3.20;;;11.10;56.90;;;;;;5116268;27;20482;-91
2022/09/30 05:28:53;;;;;;;5.43;3.13;;;11.20;56.70;;;;;;5081708;27;20447;-92
2022/09/30 05:31:20;;;;;;;3.47;3.17;;;11.30;56.30;;;;;;5111791;27;20437;-93
2022/09/30 05:33:49;;;;;;;3.33;2.80;;;11.40;56.20;;;;;;5091459;27;20451;-92
2022/09/30 05:36:16;;;;;;;3.03;2.73;;;11.30;55.80;;;;;;5090681;27;22024;-93
2022/09/30 05:38:43;;;;;;;4.50;3.30;;;11.20;56.10;;;;;;5088525;27;20525;-92
2022/09/30 05:41:12;;;;;;;4.67;2.90;;;11.20;56.00;;;;;;5119136;27;20677;-94
2022/09/30 05:43:39;;;;;;;2.50;2.30;;;11.00;55.60;;;;;;5110204;27;20461;-91
2022/09/30 05:46:07;;;;;;;3.60;2.80;;;10.70;56.00;;;;;;5118068;27;20454;-91
2022/09/30 05:48:34;;;;;;;3.53;3.20;;;10.70;56.50;;;;;;5096651;27;20437;-91
2022/09/30 05:51:03;;;;;;;4.60;3.80;;;10.70;56.70;;;;;;5103768;27;20470;-90
2022/09/30 05:53:31;;;;;;;5.73;3.70;;;10.70;56.60;;;;;;5101827;27;20446;-91
2022/09/30 05:55:59;;;;;;;4.70;2.90;;;10.70;56.90;;;;;;5118445;27;20567;-92
2022/09/30 05:58:27;;;;;;;5.47;2.60;;;10.90;56.30;;;;;;5096996;27;20443;-91
2022/09/30 06:00:54;;;;;;;5.23;3.07;;;10.70;55.90;;;;;;5117890;27;20446;-91
2022/09/30 06:03:21;;;;;;;4.13;3.10;;;10.50;56.50;;;;;;5102594;27;20446;-91
2022/09/30 06:05:48;;;;;;;4.07;2.90;;;10.50;57.40;;;;;;5105165;27;20549;-90
2022/09/30 06:08:17;;;;;;;4.97;3.10;;;10.70;57.00;;;;;;5121198;27;20461;-90
2022/09/30 06:10:45;;;;;;;2.70;2.47;;;10.80;56.60;;;;;;5125211;27;20466;-92
2022/09/30 06:13:12;;;;;;;8.80;3.97;;;10.60;56.90;;;;;;5098278;27;20475;-91
2022/09/30 06:15:40;;;;;;;4.63;3.60;;;10.60;56.90;;;;;;5120007;27;20490;-91
2022/09/30 06:18:08;;;;;;;6.93;4.33;;;10.60;57.60;;;;;;5115935;28;20451;-91
2022/09/30 06:20:36;;;;;;;12.43;4.90;;;10.50;57.30;;;;;;5133061;27;20426;-93
2022/09/30 06:23:03;;;;;;;8.27;4.73;;;10.50;57.10;;;;;;5115641;27;20442;-91
2022/09/30 06:25:32;;;;;;;6.80;4.17;;;10.50;57.30;;;;;;5083431;28;20473;-91
2022/09/30 06:28:00;;;;;;;12.67;3.57;;;10.70;57.00;;;;;;5114417;27;20549;-91
2022/09/30 06:30:27;;;;;;;9.60;4.30;;;10.80;56.70;;;;;;5098565;27;20566;-89
2022/09/30 06:32:56;;;;;;;6.13;4.67;;;10.70;56.90;;;;;;5081370;28;20444;-90
2022/09/30 06:35:25;;;;;;;9.07;4.00;;;10.90;56.80;;;;;;5099029;27;20454;-93
2022/09/30 06:37:52;;;;;;;6.43;4.33;;;11.10;56.50;;;;;;5091749;27;20997;-91
2022/09/30 06:40:20;;;;;;;8.37;6.80;;;11.10;56.10;;;;;;5113645;27;20446;-92
2022/09/30 06:42:49;;;;;;;9.27;3.63;;;11.10;56.00;;;;;;5111536;27;20870;-91
2022/09/30 06:45:17;;;;;;;9.23;3.90;;;11.10;56.10;;;;;;5078451;27;20482;-91
2022/09/30 06:47:50;;;;;;;5.90;4.53;;;11.10;56.40;;;;;;5103992;27;20453;-90
2022/09/30 06:50:17;;;;;;;6.53;4.33;;;11.00;56.40;;;;;;5093569;28;20470;-92
2022/09/30 06:52:44;;;;;;;5.67;3.70;;;11.10;56.90;;;;;;5101760;27;20457;-92
2022/09/30 06:55:11;;;;;;;7.67;4.30;;;11.00;55.80;;;;;;5098221;27;20883;-91
2022/09/30 06:57:41;;;;;;;6.07;4.13;;;10.70;56.50;;;;;;5097029;27;20457;-91
2022/09/30 07:00:10;;;;;;;7.80;5.03;;;10.90;57.00;;;;;;5114494;27;20442;-91
2022/09/30 07:02:38;;;;;;;6.47;3.50;;;11.10;56.70;;;;;;5073732;28;20451;-92
2022/09/30 07:05:06;;;;;;;6.07;5.10;;;11.20;56.40;;;;;;5085716;28;20907;-92
2022/09/30 07:07:33;;;;;;;6.43;4.87;;;11.40;56.10;;;;;;5061549;27;20446;-91
2022/09/30 07:10:00;;;;;;;9.00;5.43;;;11.10;56.30;;;;;;5079897;28;20474;-91
2022/09/30 07:12:27;;;;;;;8.47;6.30;;;11.00;56.80;;;;;;5080449;27;20522;-91
2022/09/30 07:14:54;;;;;;;10.10;7.43;;;11.00;56.80;;;;;;5079862;28;20508;-91
2022/09/30 07:17:23;;;;;;;10.83;7.27;;;11.10;56.50;;;;;;5085327;28;20453;-91
2022/09/30 07:19:51;;;;;;;7.83;6.07;;;11.10;57.00;;;;;;5100089;28;20532;-92
2022/09/30 07:22:31;;;;;;;9.53;5.70;;;11.20;56.90;;;;;;5080430;28;20537;-92
2022/09/30 07:24:59;;;;;;;8.70;5.20;;;11.00;56.90;;;;;;5080513;28;20485;-91
2022/09/30 07:27:26;;;;;;;32.10;26.63;;;10.80;57.60;;;;;;5088308;28;20447;-92
2022/09/30 07:29:54;;;;;;;7.60;5.90;;;10.80;57.80;;;;;;5071300;28;20477;-91
2022/09/30 07:32:23;;;;;;;10.70;7.10;;;10.80;57.80;;;;;;5080658;28;20462;-91
2022/09/30 07:34:50;;;;;;;9.53;7.60;;;11.00;58.30;;;;;;5096851;28;20500;-91
2022/09/30 07:37:20;;;;;;;10.97;7.70;;;11.20;57.70;;;;;;5088559;28;20431;-91
2022/09/30 07:39:48;;;;;;;10.67;7.87;;;11.10;57.50;;;;;;5099385;28;20463;-91
2022/09/30 07:42:19;;;;;;;17.20;8.53;;;11.10;57.80;;;;;;5069767;28;20443;-91
2022/09/30 07:44:46;;;;;;;18.50;9.63;;;11.00;57.80;;;;;;5086879;28;20832;-90
2022/09/30 07:47:14;;;;;;;13.70;9.13;;;10.90;58.10;;;;;;5083182;28;20462;-91
2022/09/30 07:49:43;;;;;;;12.10;8.27;;;10.90;58.60;;;;;;5081917;28;20430;-92
2022/09/30 07:52:11;;;;;;;9.67;7.03;;;11.00;58.20;;;;;;5084461;28;20507;-91
2022/09/30 07:54:40;;;;;;;16.07;9.10;;;11.10;58.30;;;;;;5064150;28;20465;-91
2022/09/30 07:57:07;;;;;;;11.93;7.30;;;11.40;58.20;;;;;;5078695;28;20450;-91
2022/09/30 07:59:38;;;;;;;17.07;9.43;;;11.40;57.90;;;;;;5061704;28;20483;-90
2022/09/30 08:02:06;;;;;;;20.60;11.87;;;11.50;58.00;;;;;;5063471;28;20471;-91
2022/09/30 08:04:33;;;;;;;18.47;11.53;;;11.80;57.70;;;;;;5081215;28;20491;-90
2022/09/30 08:07:04;;;;;;;18.03;10.60;;;11.80;57.30;;;;;;5051342;28;20457;-90
2022/09/30 08:09:31;;;;;;;23.00;12.47;;;11.60;57.80;;;;;;5079746;28;20461;-89
2022/09/30 08:11:58;;;;;;;17.70;12.10;;;11.60;58.40;;;;;;5115365;27;20794;-90
2022/09/30 08:14:27;;;;;;;16.60;10.60;;;11.90;57.90;;;;;;5089852;27;20469;-90
2022/09/30 08:16:57;;;;;;;29.13;19.43;;;12.10;57.80;;;;;;5089535;27;20519;-90
2022/09/30 08:19:25;;;;;;;24.80;15.77;;;12.20;57.00;;;;;;5096200;27;20449;-91
2022/09/30 08:21:52;;;;;;;26.13;15.93;;;12.20;56.90;;;;;;5070052;27;20459;-91
2022/09/30 08:24:22;;;;;;;35.20;21.73;;;12.10;57.40;;;;;;5095022;27;20481;-90
2022/09/30 08:26:49;;;;;;;18.57;10.50;;;12.00;57.70;;;;;;5067651;27;20449;-89
2022/09/30 08:29:16;;;;;;;21.60;10.93;;;12.10;57.90;;;;;;5084390;27;20530;-90
2022/09/30 08:31:43;;;;;;;22.77;12.70;;;12.10;57.90;;;;;;5083779;27;21187;-90
2022/09/30 08:34:10;;;;;;;28.03;16.90;;;12.10;58.30;;;;;;5082626;27;20494;-90
2022/09/30 08:36:37;;;;;;;38.27;23.07;;;11.90;58.60;;;;;;5117677;27;20446;-90
2022/09/30 08:39:05;;;;;;;54.20;33.43;;;11.80;59.30;;;;;;5082327;27;21065;-90
2022/09/30 08:41:50;;;;;;;73.87;39.57;;;11.80;59.00;;;;;;5084003;27;21218;-91
2022/09/30 08:44:29;;;;;;;48.10;27.97;;;11.80;59.10;;;;;;5072770;27;20466;-91
2022/09/30 08:47:03;;;;;;;23.83;12.10;;;11.70;59.80;;;;;;5068290;27;20463;-91
2022/09/30 08:49:43;;;;;;;22.07;11.40;;;11.70;59.90;;;;;;5102005;27;20451;-91
2022/09/30 08:52:14;;;;;;;25.90;14.20;;;11.90;59.60;;;;;;5091623;27;20488;-91
2022/09/30 08:54:46;;;;;;;15.10;9.40;;;12.10;59.60;;;;;;5093774;27;20569;-91
2022/09/30 08:57:14;;;;;;;25.13;13.90;;;12.40;58.50;;;;;;5104071;27;20454;-91
2022/09/30 08:59:46;;;;;;;21.37;11.70;;;12.50;58.40;;;;;;5087577;27;20450;-90
2022/09/30 09:02:18;;;;;;;28.53;12.10;;;12.70;58.60;;;;;;5092425;27;20565;-92
2022/09/30 09:04:47;;;;;;;26.83;13.97;;;13.00;58.30;;;;;;5121512;27;20543;-93
2022/09/30 09:07:27;;;;;;;24.93;13.40;;;12.90;57.50;;;;;;5079370;27;20788;-92
2022/09/30 09:10:07;;;;;;;22.40;12.10;;;12.90;58.00;;;;;;5093963;27;20446;-91
2022/09/30 09:12:43;;;;;;;28.70;14.03;;;12.50;59.30;;;;;;5078775;27;20489;-92
2022/09/30 09:15:25;;;;;;;21.57;14.13;;;12.40;61.30;;;;;;5107097;27;20459;-91
2022/09/30 09:18:09;;;;;;;24.67;13.87;;;12.80;60.20;;;;;;5104489;27;20469;-91
2022/09/30 09:20:42;;;;;;;21.17;12.30;;;13.20;59.10;;;;;;5075723;27;20435;-92
2022/09/30 09:23:12;;;;;;;20.57;11.40;;;13.30;58.20;;;;;;5073607;27;20450;-91
2022/09/30 09:25:39;;;;;;;24.73;11.70;;;13.30;58.40;;;;;;5107564;27;21087;-92
2022/09/30 09:28:29;;;;;;;22.70;13.50;;;13.20;58.90;;;;;;5085415;27;20445;-92
2022/09/30 09:30:59;;;;;;;20.73;12.47;;;13.00;58.80;;;;;;5085231;27;21107;-90
2022/09/30 09:33:29;;;;;;;24.70;13.83;;;13.00;59.20;;;;;;5103285;27;20443;-92
2022/09/30 09:36:05;;;;;;;21.70;12.80;;;13.10;59.40;;;;;;5120576;27;20501;-91
2022/09/30 09:38:46;;;;;;;27.03;14.53;;;13.30;59.10;;;;;;5072653;27;21712;-92
2022/09/30 09:41:25;;;;;;;19.27;12.73;;;13.60;58.90;;;;;;5086270;28;20499;-92
2022/09/30 09:44:01;;;;;;;24.43;13.67;;;13.60;58.30;;;;;;5105600;27;20446;-91
2022/09/30 09:46:30;;;;;;;38.00;16.43;;;13.70;58.50;;;;;;5083499;27;20435;-91
2022/09/30 09:49:40;;;;;;;25.10;15.80;;;13.90;58.30;;;;;;5082689;27;20551;-91
2022/09/30 09:52:38;;;;;;;59.10;32.43;;;13.80;58.80;;;;;;5085206;27;20474;-90
2022/09/30 09:55:08;;;;;;;32.50;15.93;;;13.80;58.70;;;;;;5101723;27;20508;-91
2022/09/30 09:57:35;;;;;;;30.40;19.50;;;13.90;58.40;;;;;;5086172;27;20446;-90
2022/09/30 10:03:00;;;;;;;58.73;33.57;;;13.80;59.00;;;;;;5083764;27;20456;-91
2022/09/30 10:05:28;;;;;;;53.37;30.77;;;13.90;59.30;;;;;;5103650;27;20473;-90
2022/09/30 10:08:10;;;;;;;24.13;14.43;;;14.00;59.40;;;;;;5070513;27;20915;-90
2022/09/30 10:10:49;;;;;;;23.20;13.70;;;14.10;58.80;;;;;;5103462;27;20901;-90
2022/09/30 10:13:18;;;;;;;22.20;15.50;;;14.30;58.70;;;;;;5087234;27;20460;-91
2022/09/30 10:15:47;;;;;;;22.83;14.23;;;14.60;58.60;;;;;;5110128;27;20496;-90
2022/09/30 10:18:20;;;;;;;24.33;14.80;;;14.70;58.10;;;;;;5097018;27;20933;-90
2022/09/30 10:20:53;;;;;;;24.93;13.73;;;14.40;58.80;;;;;;5098735;27;20998;-90
2022/09/30 10:23:25;;;;;;;25.13;14.10;;;14.40;59.30;;;;;;5094440;27;20446;-90
2022/09/30 10:26:02;;;;;;;20.30;11.97;;;14.50;59.30;;;;;;5083267;27;20479;-90
2022/09/30 10:28:31;;;;;;;22.40;14.20;;;14.60;59.00;;;;;;5098395;27;20494;-91
2022/09/30 10:31:06;;;;;;;27.27;19.27;;;14.90;58.80;;;;;;5097182;27;20473;-90
2022/09/30 10:33:40;;;;;;;18.80;12.50;;;15.20;58.20;;;;;;5098621;27;20529;-91
2022/09/30 10:36:18;;;;;;;18.27;11.30;;;15.40;57.70;;;;;;5067136;28;20469;-91
2022/09/30 10:38:52;;;;;;;20.83;12.63;;;15.60;57.10;;;;;;5091693;27;20506;-90
2022/09/30 10:41:24;;;;;;;22.73;14.60;;;15.70;57.10;;;;;;5100330;27;20449;-89
2022/09/30 10:43:53;;;;;;;20.57;12.43;;;15.80;56.90;;;;;;5067814;27;20447;-91
2022/09/30 10:46:27;;;;;;;19.10;11.90;;;16.00;56.70;;;;;;5097986;27;20480;-90
2022/09/30 10:48:56;;;;;;;15.10;10.07;;;16.10;56.60;;;;;;5103549;28;20445;-92
2022/09/30 10:51:26;;;;;;;17.53;11.87;;;16.30;56.30;;;;;;5103195;27;20480;-90
2022/09/30 10:53:54;;;;;;;27.93;19.33;;;16.60;56.30;;;;;;5120102;27;20825;-91
2022/09/30 10:56:41;;;;;;;17.50;10.13;;;16.80;55.80;;;;;;5107987;28;20438;-90
2022/09/30 10:59:18;;;;;;;17.30;10.37;;;16.80;55.40;;;;;;5101339;27;20475;-90
2022/09/30 11:01:51;;;;;;;15.47;9.83;;;17.00;55.80;;;;;;5095446;28;20468;-90
2022/09/30 11:04:25;;;;;;;14.67;9.80;;;17.10;55.00;;;;;;5114457;27;20465;-90
2022/09/30 11:06:56;;;;;;;15.03;9.93;;;17.40;55.20;;;;;;5080085;28;20475;-90
2022/09/30 11:09:30;;;;;;;44.03;21.27;;;17.70;54.50;;;;;;5091195;28;20496;-90
2022/09/30 11:12:02;;;;;;;15.57;11.90;;;17.80;53.90;;;;;;5103737;27;20492;-89
2022/09/30 11:14:35;;;;;;;15.37;8.73;;;17.70;54.20;;;;;;5090856;28;20501;-91
2022/09/30 11:17:15;;;;;;;14.23;9.23;;;17.80;54.20;;;;;;5115825;27;20449;-90
2022/09/30 11:19:49;;;;;;;20.03;9.33;;;17.90;53.90;;;;;;5116996;28;20447;-90
2022/09/30 11:22:29;;;;;;;16.03;8.30;;;18.30;54.50;;;;;;5114547;28;20946;-90
2022/09/30 11:24:57;;;;;;;12.50;9.10;;;18.60;52.70;;;;;;5096146;28;20493;-91
2022/09/30 11:27:37;;;;;;;10.23;8.40;;;18.70;52.50;;;;;;5104322;28;20433;-91
2022/09/30 11:30:10;;;;;;;13.77;9.23;;;18.90;51.90;;;;;;5097462;28;20443;-91
2022/09/30 11:32:57;;;;;;;13.97;10.20;;;18.80;52.00;;;;;;5095899;28;20935;-90
2022/09/30 11:35:36;;;;;;;12.57;8.33;;;18.80;52.10;;;;;;5114802;28;20462;-90
2022/09/30 11:38:33;;;;;;;12.20;9.17;;;18.90;52.20;;;;;;5070438;28;20806;-90
2022/09/30 11:41:08;;;;;;;16.40;12.70;;;19.10;51.50;;;;;;5062667;28;20829;-90
2022/09/30 11:43:45;;;;;;;14.93;10.93;;;19.20;50.30;;;;;;5103548;28;20635;-91
2022/09/30 11:46:44;;;;;;;10.83;7.20;;;19.30;50.60;;;;;;5091768;27;20438;-90
2022/09/30 11:49:37;;;;;;;11.30;7.53;;;19.40;50.90;;;;;;5106723;27;20451;-91
2022/09/30 11:52:14;;;;;;;8.93;6.90;;;19.40;50.00;;;;;;5110806;27;20459;-90
2022/09/30 11:55:04;;;;;;;10.37;7.80;;;19.20;50.70;;;;;;5115431;27;21006;-90
2022/09/30 11:57:37;;;;;;;11.07;7.13;;;19.10;50.30;;;;;;5092881;27;20451;-90
2022/09/30 12:00:13;;;;;;;10.90;7.13;;;19.10;50.40;;;;;;5111649;27;20444;-90
2022/09/30 12:02:43;;;;;;;8.00;7.10;;;19.10;50.60;;;;;;5096381;27;20511;-90
2022/09/30 12:05:16;;;;;;;9.13;7.60;;;19.40;50.50;;;;;;5116109;27;20467;-91
2022/09/30 12:07:47;;;;;;;12.67;7.17;;;19.60;49.20;;;;;;5090824;27;20541;-90
2022/09/30 12:10:21;;;;;;;7.57;6.30;;;19.70;48.80;;;;;;5101482;27;20450;-90
2022/09/30 12:12:53;;;;;;;6.23;5.40;;;19.80;48.10;;;;;;5099825;27;20461;-90
2022/09/30 12:15:23;;;;;;;8.03;5.67;;;20.00;48.00;;;;;;5113437;27;20469;-90
2022/09/30 12:17:57;;;;;;;11.80;5.20;;;20.40;47.10;;;;;;5100672;27;20450;-90
2022/09/30 12:20:31;;;;;;;6.27;5.03;;;20.60;46.40;;;;;;5107358;27;20432;-90
2022/09/30 12:23:09;;;;;;;3.90;3.50;;;20.40;45.00;;;;;;5115692;27;20563;-91
2022/09/30 12:25:41;;;;;;;9.33;3.90;;;20.70;45.50;;;;;;5116261;27;20501;-91
2022/09/30 12:31:14;;;;;;;3.43;3.10;;;21.00;43.80;;;;;;5107627;27;20521;-91
2022/09/30 12:33:59;;;;;;;3.77;2.90;;;21.10;41.80;;;;;;5122818;27;20449;-91
2022/09/30 12:36:49;;;;;;;4.93;3.37;;;21.40;42.20;;;;;;5113902;27;20937;-90
2022/09/30 12:39:50;;;;;;;3.30;3.00;;;21.80;41.20;;;;;;5082997;27;20452;-91
2022/09/30 12:42:39;;;;;;;4.63;3.17;;;21.90;40.40;;;;;;5097528;28;20447;-90
2022/09/30 12:45:29;;;;;;;3.17;2.77;;;21.90;40.10;;;;;;5097009;27;20462;-91
2022/09/30 12:47:58;;;;;;;3.20;2.90;;;21.80;40.00;;;;;;5112933;27;20450;-90
2022/09/30 12:50:28;;;;;;;4.50;2.90;;;21.90;41.30;;;;;;5116191;27;20450;-90
2022/09/30 12:52:58;;;;;;;3.97;2.67;;;22.00;37.90;;;;;;5096002;27;20474;-90
2022/09/30 12:55:30;;;;;;;3.10;2.80;;;22.20;37.90;;;;;;5114120;27;20561;-90
2022/09/30 12:58:01;;;;;;;2.83;2.47;;;22.30;38.20;;;;;;5094285;27;20446;-90
2022/09/30 13:00:30;;;;;;;2.63;2.43;;;22.20;37.00;;;;;;5099573;27;20710;-90
2022/09/30 13:03:04;;;;;;;3.20;2.90;;;22.10;37.20;;;;;;5102743;27;21308;-90
2022/09/30 13:05:52;;;;;;;6.90;3.40;;;22.30;38.20;;;;;;5115454;27;20494;-90
2022/09/30 13:08:46;;;;;;;3.47;2.97;;;22.20;37.90;;;;;;5110928;27;20449;-90
2022/09/30 13:11:36;;;;;;;3.43;2.37;;;22.10;38.50;;;;;;5105084;27;20478;-90